sensor_id;sensor_type;location;lat;lon;timestamp;P1;durP1;ratioP1;P2;durP2;ratioP2
59728;SDS011;45588;51.598;5.618;2022-08-11T00:00:17;10.57;;;6.80;;
59728;SDS011;45588;51.598;5.618;2022-08-11T00:02:45;8.70;;;5.72;;
59728;SDS011;45588;51.598;5.618;2022-08-11T00:05:19;10.05;;;5.85;;
59728;SDS011;45588;51.598;5.618;2022-08-11T00:10:19;10.65;;;6.97;;
59728;SDS011;45588;51.598;5.618;2022-08-11T00:12:56;7.03;;;5.75;;
59728;SDS011;45588;51.598;5.618;2022-08-11T00:15:24;7.38;;;5.53;;
59728;SDS011;45588;51.598;5.618;2022-08-11T00:17:56;7.65;;;6.22;;
59728;SDS011;45588;51.598;5.618;2022-08-11T00:22:58;7.97;;;4.87;;
59728;SDS011;45588;51.598;5.618;2022-08-11T00:25:26;9.43;;;6.75;;
59728;SDS011;45588;51.598;5.618;2022-08-11T00:27:52;8.02;;;5.30;;
59728;SDS011;45588;51.598;5.618;2022-08-11T00:30:18;10.48;;;5.85;;
59728;SDS011;45588;51.598;5.618;2022-08-11T00:32:44;8.75;;;6.25;;
59728;SDS011;45588;51.598;5.618;2022-08-11T00:35:22;7.93;;;7.05;;
59728;SDS011;45588;51.598;5.618;2022-08-11T00:37:50;8.75;;;6.30;;
59728;SDS011;45588;51.598;5.618;2022-08-11T00:40:27;8.75;;;6.65;;
59728;SDS011;45588;51.598;5.618;2022-08-11T00:43:06;6.93;;;6.32;;
59728;SDS011;45588;51.598;5.618;2022-08-11T00:45:50;9.02;;;6.95;;
59728;SDS011;45588;51.598;5.618;2022-08-11T00:48:32;10.13;;;6.70;;
59728;SDS011;45588;51.598;5.618;2022-08-11T01:07:49;9.32;;;5.57;;
59728;SDS011;45588;51.598;5.618;2022-08-11T01:13:46;5.93;;;5.17;;
59728;SDS011;45588;51.598;5.618;2022-08-11T01:16:37;9.55;;;6.93;;
59728;SDS011;45588;51.598;5.618;2022-08-11T01:22:11;8.77;;;4.70;;
59728;SDS011;45588;51.598;5.618;2022-08-11T01:30:42;14.85;;;5.90;;
59728;SDS011;45588;51.598;5.618;2022-08-11T01:36:32;7.88;;;6.03;;
59728;SDS011;45588;51.598;5.618;2022-08-11T01:42:57;9.20;;;6.70;;
59728;SDS011;45588;51.598;5.618;2022-08-11T01:48:25;12.60;;;6.72;;
59728;SDS011;45588;51.598;5.618;2022-08-11T01:54:08;8.80;;;6.45;;
59728;SDS011;45588;51.598;5.618;2022-08-11T01:59:35;7.30;;;6.38;;
59728;SDS011;45588;51.598;5.618;2022-08-11T02:02:22;11.48;;;7.45;;
59728;SDS011;45588;51.598;5.618;2022-08-11T02:05:16;11.43;;;6.13;;
59728;SDS011;45588;51.598;5.618;2022-08-11T02:08:10;6.53;;;5.50;;
59728;SDS011;45588;51.598;5.618;2022-08-11T02:10:57;11.05;;;6.85;;
59728;SDS011;45588;51.598;5.618;2022-08-11T02:16:47;8.73;;;6.88;;
59728;SDS011;45588;51.598;5.618;2022-08-11T02:19:41;9.25;;;6.13;;
59728;SDS011;45588;51.598;5.618;2022-08-11T02:25:56;11.63;;;6.50;;
59728;SDS011;45588;51.598;5.618;2022-08-11T02:31:24;10.60;;;7.28;;
59728;SDS011;45588;51.598;5.618;2022-08-11T02:37:19;11.52;;;6.25;;
59728;SDS011;45588;51.598;5.618;2022-08-11T02:42:29;9.40;;;7.50;;
59728;SDS011;45588;51.598;5.618;2022-08-11T02:47:54;10.32;;;6.95;;
59728;SDS011;45588;51.598;5.618;2022-08-11T02:51:08;10.20;;;6.95;;
59728;SDS011;45588;51.598;5.618;2022-08-11T02:59:32;10.07;;;6.60;;
59728;SDS011;45588;51.598;5.618;2022-08-11T03:05:04;7.68;;;6.15;;
59728;SDS011;45588;51.598;5.618;2022-08-11T03:10:23;9.38;;;6.60;;
59728;SDS011;45588;51.598;5.618;2022-08-11T03:22:21;10.02;;;6.25;;
59728;SDS011;45588;51.598;5.618;2022-08-11T03:27:59;8.95;;;6.35;;
59728;SDS011;45588;51.598;5.618;2022-08-11T03:30:38;9.95;;;6.45;;
59728;SDS011;45588;51.598;5.618;2022-08-11T03:41:48;10.05;;;7.78;;
59728;SDS011;45588;51.598;5.618;2022-08-11T04:07:44;15.63;;;8.48;;
59728;SDS011;45588;51.598;5.618;2022-08-11T04:10:27;16.83;;;8.45;;
59728;SDS011;45588;51.598;5.618;2022-08-11T04:49:36;13.35;;;8.77;;
59728;SDS011;45588;51.598;5.618;2022-08-11T04:52:51;10.00;;;8.45;;
59728;SDS011;45588;51.598;5.618;2022-08-11T04:55:53;12.20;;;8.63;;
59728;SDS011;45588;51.598;5.618;2022-08-11T05:01:46;25.15;;;9.40;;
59728;SDS011;45588;51.598;5.618;2022-08-11T05:13:25;11.10;;;8.88;;
59728;SDS011;45588;51.598;5.618;2022-08-11T05:16:12;10.30;;;8.65;;
59728;SDS011;45588;51.598;5.618;2022-08-11T05:19:00;16.60;;;9.00;;
59728;SDS011;45588;51.598;5.618;2022-08-11T05:21:47;12.32;;;9.30;;
59728;SDS011;45588;51.598;5.618;2022-08-11T05:24:40;13.25;;;8.85;;
59728;SDS011;45588;51.598;5.618;2022-08-11T05:27:29;13.75;;;10.85;;
59728;SDS011;45588;51.598;5.618;2022-08-11T05:30:25;17.08;;;10.77;;
59728;SDS011;45588;51.598;5.618;2022-08-11T05:33:14;21.83;;;12.40;;
59728;SDS011;45588;51.598;5.618;2022-08-11T05:36:29;18.60;;;12.45;;
59728;SDS011;45588;51.598;5.618;2022-08-11T05:39:10;19.35;;;10.60;;
59728;SDS011;45588;51.598;5.618;2022-08-11T05:42:04;12.98;;;10.80;;
59728;SDS011;45588;51.598;5.618;2022-08-11T05:44:50;13.50;;;11.65;;
59728;SDS011;45588;51.598;5.618;2022-08-11T05:47:38;14.98;;;10.77;;
59728;SDS011;45588;51.598;5.618;2022-08-11T05:50:24;13.65;;;9.85;;
59728;SDS011;45588;51.598;5.618;2022-08-11T05:53:09;19.13;;;11.10;;
59728;SDS011;45588;51.598;5.618;2022-08-11T05:55:54;14.90;;;12.32;;
59728;SDS011;45588;51.598;5.618;2022-08-11T05:58:43;20.30;;;12.68;;
59728;SDS011;45588;51.598;5.618;2022-08-11T06:01:14;17.40;;;12.18;;
59728;SDS011;45588;51.598;5.618;2022-08-11T06:03:50;16.42;;;14.00;;
59728;SDS011;45588;51.598;5.618;2022-08-11T06:06:35;36.30;;;14.75;;
59728;SDS011;45588;51.598;5.618;2022-08-11T06:09:04;20.80;;;14.50;;
59728;SDS011;45588;51.598;5.618;2022-08-11T06:11:32;15.55;;;13.27;;
59728;SDS011;45588;51.598;5.618;2022-08-11T06:14:03;17.17;;;13.98;;
59728;SDS011;45588;51.598;5.618;2022-08-11T06:16:30;21.85;;;13.18;;
59728;SDS011;45588;51.598;5.618;2022-08-11T06:18:56;18.30;;;13.20;;
59728;SDS011;45588;51.598;5.618;2022-08-11T06:21:22;14.45;;;13.05;;
59728;SDS011;45588;51.598;5.618;2022-08-11T06:23:48;13.48;;;12.07;;
59728;SDS011;45588;51.598;5.618;2022-08-11T06:26:13;16.52;;;12.38;;
59728;SDS011;45588;51.598;5.618;2022-08-11T06:28:40;19.85;;;13.52;;
59728;SDS011;45588;51.598;5.618;2022-08-11T06:39:45;16.02;;;12.18;;
59728;SDS011;45588;51.598;5.618;2022-08-11T06:42:23;19.42;;;12.60;;
59728;SDS011;45588;51.598;5.618;2022-08-11T06:45:14;19.30;;;12.88;;
59728;SDS011;45588;51.598;5.618;2022-08-11T06:48:00;13.45;;;11.93;;
59728;SDS011;45588;51.598;5.618;2022-08-11T06:50:27;18.02;;;12.40;;
59728;SDS011;45588;51.598;5.618;2022-08-11T06:53:14;15.00;;;10.90;;
59728;SDS011;45588;51.598;5.618;2022-08-11T06:55:42;15.77;;;11.52;;
59728;SDS011;45588;51.598;5.618;2022-08-11T06:58:32;25.60;;;14.05;;
59728;SDS011;45588;51.598;5.618;2022-08-11T07:04:05;17.30;;;12.63;;
59728;SDS011;45588;51.598;5.618;2022-08-11T07:06:38;16.02;;;10.73;;
59728;SDS011;45588;51.598;5.618;2022-08-11T07:12:56;16.55;;;12.20;;
59728;SDS011;45588;51.598;5.618;2022-08-11T07:15:55;18.73;;;13.25;;
59728;SDS011;45588;51.598;5.618;2022-08-11T07:18:24;19.35;;;12.10;;
59728;SDS011;45588;51.598;5.618;2022-08-11T07:21:12;17.15;;;12.57;;
59728;SDS011;45588;51.598;5.618;2022-08-11T07:24:00;15.23;;;12.07;;
59728;SDS011;45588;51.598;5.618;2022-08-11T07:26:51;15.07;;;10.65;;
59728;SDS011;45588;51.598;5.618;2022-08-11T07:29:37;15.05;;;11.35;;
59728;SDS011;45588;51.598;5.618;2022-08-11T07:32:29;16.20;;;10.93;;
59728;SDS011;45588;51.598;5.618;2022-08-11T07:35:01;15.35;;;10.63;;
59728;SDS011;45588;51.598;5.618;2022-08-11T07:37:33;16.52;;;10.45;;
59728;SDS011;45588;51.598;5.618;2022-08-11T07:39:59;16.27;;;11.35;;
59728;SDS011;45588;51.598;5.618;2022-08-11T07:42:28;12.30;;;11.00;;
59728;SDS011;45588;51.598;5.618;2022-08-11T07:44:56;17.15;;;9.88;;
59728;SDS011;45588;51.598;5.618;2022-08-11T07:47:41;13.23;;;9.38;;
59728;SDS011;45588;51.598;5.618;2022-08-11T07:50:28;12.05;;;9.32;;
59728;SDS011;45588;51.598;5.618;2022-08-11T07:53:12;10.80;;;8.23;;
59728;SDS011;45588;51.598;5.618;2022-08-11T07:55:39;14.95;;;8.60;;
59728;SDS011;45588;51.598;5.618;2022-08-11T07:58:06;12.48;;;8.57;;
59728;SDS011;45588;51.598;5.618;2022-08-11T08:00:56;15.93;;;8.75;;
59728;SDS011;45588;51.598;5.618;2022-08-11T08:03:41;12.45;;;8.73;;
59728;SDS011;45588;51.598;5.618;2022-08-11T08:06:27;14.45;;;7.93;;
59728;SDS011;45588;51.598;5.618;2022-08-11T08:09:12;18.50;;;10.32;;
59728;SDS011;45588;51.598;5.618;2022-08-11T08:11:59;9.57;;;6.95;;
59728;SDS011;45588;51.598;5.618;2022-08-11T08:14:46;13.82;;;7.50;;
59728;SDS011;45588;51.598;5.618;2022-08-11T08:17:29;16.45;;;7.57;;
59728;SDS011;45588;51.598;5.618;2022-08-11T08:20:13;25.02;;;10.52;;
59728;SDS011;45588;51.598;5.618;2022-08-11T08:22:44;18.00;;;9.80;;
59728;SDS011;45588;51.598;5.618;2022-08-11T08:25:12;23.70;;;12.88;;
59728;SDS011;45588;51.598;5.618;2022-08-11T08:27:38;32.55;;;13.45;;
59728;SDS011;45588;51.598;5.618;2022-08-11T08:30:07;12.25;;;6.47;;
59728;SDS011;45588;51.598;5.618;2022-08-11T08:32:51;8.10;;;6.40;;
59728;SDS011;45588;51.598;5.618;2022-08-11T08:35:19;8.07;;;6.63;;
59728;SDS011;45588;51.598;5.618;2022-08-11T08:37:45;8.85;;;6.60;;
59728;SDS011;45588;51.598;5.618;2022-08-11T08:40:14;8.65;;;6.55;;
59728;SDS011;45588;51.598;5.618;2022-08-11T08:42:45;10.85;;;7.10;;
59728;SDS011;45588;51.598;5.618;2022-08-11T08:45:15;12.25;;;6.60;;
59728;SDS011;45588;51.598;5.618;2022-08-11T08:47:44;9.00;;;6.50;;
59728;SDS011;45588;51.598;5.618;2022-08-11T08:50:12;10.32;;;6.25;;
59728;SDS011;45588;51.598;5.618;2022-08-11T08:52:51;8.00;;;6.63;;
59728;SDS011;45588;51.598;5.618;2022-08-11T08:55:19;7.05;;;6.22;;
59728;SDS011;45588;51.598;5.618;2022-08-11T08:57:47;11.73;;;6.13;;
59728;SDS011;45588;51.598;5.618;2022-08-11T09:00:14;11.27;;;6.00;;
59728;SDS011;45588;51.598;5.618;2022-08-11T09:02:40;8.93;;;6.47;;
59728;SDS011;45588;51.598;5.618;2022-08-11T09:05:07;7.43;;;5.80;;
59728;SDS011;45588;51.598;5.618;2022-08-11T09:07:34;14.50;;;6.32;;
59728;SDS011;45588;51.598;5.618;2022-08-11T09:10:00;7.65;;;5.80;;
59728;SDS011;45588;51.598;5.618;2022-08-11T09:12:27;8.80;;;5.30;;
59728;SDS011;45588;51.598;5.618;2022-08-11T09:14:53;6.78;;;5.22;;
59728;SDS011;45588;51.598;5.618;2022-08-11T09:17:30;8.48;;;5.30;;
59728;SDS011;45588;51.598;5.618;2022-08-11T09:20:01;9.63;;;5.22;;
59728;SDS011;45588;51.598;5.618;2022-08-11T09:22:32;7.28;;;4.95;;
59728;SDS011;45588;51.598;5.618;2022-08-11T09:25:21;8.90;;;5.53;;
59728;SDS011;45588;51.598;5.618;2022-08-11T09:28:11;8.57;;;5.20;;
59728;SDS011;45588;51.598;5.618;2022-08-11T09:30:42;6.50;;;5.10;;
59728;SDS011;45588;51.598;5.618;2022-08-11T09:33:10;10.13;;;4.97;;
59728;SDS011;45588;51.598;5.618;2022-08-11T09:35:37;11.45;;;5.55;;
59728;SDS011;45588;51.598;5.618;2022-08-11T09:38:07;8.23;;;5.30;;
59728;SDS011;45588;51.598;5.618;2022-08-11T09:40:54;13.93;;;4.80;;
59728;SDS011;45588;51.598;5.618;2022-08-11T09:43:20;7.45;;;5.00;;
59728;SDS011;45588;51.598;5.618;2022-08-11T09:46:04;7.38;;;4.55;;
59728;SDS011;45588;51.598;5.618;2022-08-11T09:48:38;7.22;;;4.68;;
59728;SDS011;45588;51.598;5.618;2022-08-11T09:51:06;16.80;;;5.70;;
59728;SDS011;45588;51.598;5.618;2022-08-11T09:53:34;7.28;;;4.75;;
59728;SDS011;45588;51.598;5.618;2022-08-11T09:56:03;12.57;;;5.05;;
59728;SDS011;45588;51.598;5.618;2022-08-11T09:58:51;6.22;;;4.82;;
59728;SDS011;45588;51.598;5.618;2022-08-11T10:01:19;8.13;;;5.45;;
59728;SDS011;45588;51.598;5.618;2022-08-11T10:03:54;7.32;;;5.03;;
59728;SDS011;45588;51.598;5.618;2022-08-11T10:06:25;14.98;;;5.18;;
59728;SDS011;45588;51.598;5.618;2022-08-11T10:09:10;8.40;;;4.70;;
59728;SDS011;45588;51.598;5.618;2022-08-11T10:11:40;12.68;;;5.25;;
59728;SDS011;45588;51.598;5.618;2022-08-11T10:14:06;6.65;;;4.75;;
59728;SDS011;45588;51.598;5.618;2022-08-11T10:16:53;7.82;;;4.82;;
59728;SDS011;45588;51.598;5.618;2022-08-11T10:19:19;8.07;;;4.90;;
59728;SDS011;45588;51.598;5.618;2022-08-11T10:21:50;9.60;;;5.07;;
59728;SDS011;45588;51.598;5.618;2022-08-11T10:24:37;8.38;;;4.50;;
59728;SDS011;45588;51.598;5.618;2022-08-11T10:27:23;7.93;;;4.90;;
59728;SDS011;45588;51.598;5.618;2022-08-11T10:29:50;11.13;;;4.40;;
59728;SDS011;45588;51.598;5.618;2022-08-11T10:32:34;6.88;;;4.22;;
59728;SDS011;45588;51.598;5.618;2022-08-11T10:35:19;6.82;;;4.63;;
59728;SDS011;45588;51.598;5.618;2022-08-11T10:37:45;6.72;;;4.25;;
59728;SDS011;45588;51.598;5.618;2022-08-11T10:40:16;11.88;;;5.03;;
59728;SDS011;45588;51.598;5.618;2022-08-11T10:42:46;7.70;;;4.15;;
59728;SDS011;45588;51.598;5.618;2022-08-11T10:45:31;11.50;;;4.43;;
59728;SDS011;45588;51.598;5.618;2022-08-11T10:48:17;28.60;;;6.60;;
59728;SDS011;45588;51.598;5.618;2022-08-11T10:50:48;9.93;;;4.72;;
59728;SDS011;45588;51.598;5.618;2022-08-11T10:53:38;6.40;;;3.92;;
59728;SDS011;45588;51.598;5.618;2022-08-11T10:56:26;9.77;;;4.45;;
59728;SDS011;45588;51.598;5.618;2022-08-11T10:59:12;10.10;;;4.07;;
59728;SDS011;45588;51.598;5.618;2022-08-11T11:01:41;12.27;;;4.10;;
59728;SDS011;45588;51.598;5.618;2022-08-11T11:04:16;6.15;;;3.78;;
59728;SDS011;45588;51.598;5.618;2022-08-11T11:06:47;6.63;;;3.80;;
59728;SDS011;45588;51.598;5.618;2022-08-11T11:09:29;6.47;;;4.10;;
59728;SDS011;45588;51.598;5.618;2022-08-11T11:12:02;9.10;;;4.10;;
59728;SDS011;45588;51.598;5.618;2022-08-11T11:14:53;6.00;;;4.00;;
59728;SDS011;45588;51.598;5.618;2022-08-11T11:17:40;5.55;;;4.18;;
59728;SDS011;45588;51.598;5.618;2022-08-11T11:20:28;7.32;;;3.67;;
59728;SDS011;45588;51.598;5.618;2022-08-11T11:23:04;5.25;;;3.60;;
59728;SDS011;45588;51.598;5.618;2022-08-11T11:31:35;8.55;;;3.40;;
59728;SDS011;45588;51.598;5.618;2022-08-11T11:37:27;6.45;;;3.67;;
59728;SDS011;45588;51.598;5.618;2022-08-11T11:39:54;5.93;;;3.78;;
59728;SDS011;45588;51.598;5.618;2022-08-11T11:42:21;5.25;;;3.70;;
59728;SDS011;45588;51.598;5.618;2022-08-11T11:44:47;8.18;;;4.50;;
59728;SDS011;45588;51.598;5.618;2022-08-11T11:47:14;5.35;;;4.20;;
59728;SDS011;45588;51.598;5.618;2022-08-11T11:49:43;5.50;;;3.50;;
59728;SDS011;45588;51.598;5.618;2022-08-11T11:52:16;6.95;;;4.18;;
59728;SDS011;45588;51.598;5.618;2022-08-11T11:54:44;6.82;;;3.88;;
59728;SDS011;45588;51.598;5.618;2022-08-11T11:57:17;9.15;;;3.83;;
59728;SDS011;45588;51.598;5.618;2022-08-11T12:00:05;5.72;;;3.40;;
59728;SDS011;45588;51.598;5.618;2022-08-11T12:02:51;5.35;;;3.90;;
59728;SDS011;45588;51.598;5.618;2022-08-11T12:05:17;7.45;;;4.53;;
59728;SDS011;45588;51.598;5.618;2022-08-11T12:07:43;6.80;;;4.28;;
59728;SDS011;45588;51.598;5.618;2022-08-11T12:10:27;4.57;;;3.92;;
59728;SDS011;45588;51.598;5.618;2022-08-11T12:12:54;6.28;;;3.45;;
59728;SDS011;45588;51.598;5.618;2022-08-11T12:15:38;7.20;;;4.30;;
59728;SDS011;45588;51.598;5.618;2022-08-11T12:18:04;7.63;;;3.92;;
59728;SDS011;45588;51.598;5.618;2022-08-11T12:20:30;8.88;;;3.65;;
59728;SDS011;45588;51.598;5.618;2022-08-11T12:22:56;7.95;;;3.72;;
59728;SDS011;45588;51.598;5.618;2022-08-11T12:25:41;10.80;;;3.47;;
59728;SDS011;45588;51.598;5.618;2022-08-11T12:28:27;10.25;;;4.35;;
59728;SDS011;45588;51.598;5.618;2022-08-11T12:30:53;6.60;;;3.40;;
59728;SDS011;45588;51.598;5.618;2022-08-11T12:33:18;11.18;;;4.57;;
59728;SDS011;45588;51.598;5.618;2022-08-11T12:35:45;6.28;;;3.42;;
59728;SDS011;45588;51.598;5.618;2022-08-11T12:38:13;9.93;;;3.95;;
59728;SDS011;45588;51.598;5.618;2022-08-11T12:40:40;4.28;;;3.05;;
59728;SDS011;45588;51.598;5.618;2022-08-11T12:43:26;5.53;;;3.50;;
59728;SDS011;45588;51.598;5.618;2022-08-11T12:46:15;7.15;;;3.33;;
59728;SDS011;45588;51.598;5.618;2022-08-11T12:49:09;7.43;;;3.40;;
59728;SDS011;45588;51.598;5.618;2022-08-11T12:52:08;13.02;;;4.18;;
59728;SDS011;45588;51.598;5.618;2022-08-11T12:57:27;7.80;;;3.67;;
59728;SDS011;45588;51.598;5.618;2022-08-11T13:00:14;4.68;;;3.17;;
59728;SDS011;45588;51.598;5.618;2022-08-11T13:02:59;6.63;;;3.80;;
59728;SDS011;45588;51.598;5.618;2022-08-11T13:05:45;8.02;;;3.70;;
59728;SDS011;45588;51.598;5.618;2022-08-11T13:08:12;5.05;;;3.38;;
59728;SDS011;45588;51.598;5.618;2022-08-11T13:10:39;6.60;;;3.88;;
59728;SDS011;45588;51.598;5.618;2022-08-11T13:13:23;7.80;;;3.65;;
59728;SDS011;45588;51.598;5.618;2022-08-11T13:15:49;6.38;;;3.35;;
59728;SDS011;45588;51.598;5.618;2022-08-11T13:18:16;5.85;;;3.10;;
59728;SDS011;45588;51.598;5.618;2022-08-11T13:20:47;8.35;;;3.30;;
59728;SDS011;45588;51.598;5.618;2022-08-11T13:23:15;7.65;;;3.17;;
59728;SDS011;45588;51.598;5.618;2022-08-11T13:25:41;7.20;;;3.55;;
59728;SDS011;45588;51.598;5.618;2022-08-11T13:28:08;6.40;;;3.05;;
59728;SDS011;45588;51.598;5.618;2022-08-11T13:30:36;4.57;;;2.53;;
59728;SDS011;45588;51.598;5.618;2022-08-11T13:33:21;6.88;;;3.80;;
59728;SDS011;45588;51.598;5.618;2022-08-11T13:35:47;8.25;;;3.17;;
59728;SDS011;45588;51.598;5.618;2022-08-11T13:38:17;5.03;;;3.30;;
59728;SDS011;45588;51.598;5.618;2022-08-11T13:40:46;11.73;;;3.90;;
59728;SDS011;45588;51.598;5.618;2022-08-11T13:43:13;6.43;;;3.60;;
59728;SDS011;45588;51.598;5.618;2022-08-11T13:45:40;3.75;;;3.40;;
59728;SDS011;45588;51.598;5.618;2022-08-11T13:48:07;5.03;;;3.33;;
59728;SDS011;45588;51.598;5.618;2022-08-11T13:50:33;7.18;;;3.20;;
59728;SDS011;45588;51.598;5.618;2022-08-11T13:53:23;6.90;;;3.60;;
59728;SDS011;45588;51.598;5.618;2022-08-11T13:55:50;5.70;;;4.03;;
59728;SDS011;45588;51.598;5.618;2022-08-11T13:58:16;5.55;;;3.67;;
59728;SDS011;45588;51.598;5.618;2022-08-11T14:00:47;6.78;;;2.65;;
59728;SDS011;45588;51.598;5.618;2022-08-11T14:03:13;5.85;;;3.28;;
59728;SDS011;45588;51.598;5.618;2022-08-11T14:05:47;6.13;;;3.27;;
59728;SDS011;45588;51.598;5.618;2022-08-11T14:08:16;8.80;;;3.80;;
59728;SDS011;45588;51.598;5.618;2022-08-11T14:10:46;8.27;;;2.83;;
59728;SDS011;45588;51.598;5.618;2022-08-11T14:13:40;6.65;;;3.28;;
59728;SDS011;45588;51.598;5.618;2022-08-11T14:16:08;6.15;;;3.80;;
59728;SDS011;45588;51.598;5.618;2022-08-11T14:18:38;7.80;;;3.40;;
59728;SDS011;45588;51.598;5.618;2022-08-11T14:21:09;4.35;;;3.67;;
59728;SDS011;45588;51.598;5.618;2022-08-11T14:23:57;4.63;;;3.30;;
59728;SDS011;45588;51.598;5.618;2022-08-11T14:26:24;4.72;;;3.15;;
59728;SDS011;45588;51.598;5.618;2022-08-11T14:28:52;7.00;;;3.40;;
59728;SDS011;45588;51.598;5.618;2022-08-11T14:31:20;10.75;;;3.45;;
59728;SDS011;45588;51.598;5.618;2022-08-11T14:33:47;3.58;;;3.17;;
59728;SDS011;45588;51.598;5.618;2022-08-11T14:36:14;6.38;;;3.70;;
59728;SDS011;45588;51.598;5.618;2022-08-11T14:38:39;6.47;;;3.30;;
59728;SDS011;45588;51.598;5.618;2022-08-11T14:41:06;5.15;;;3.60;;
59728;SDS011;45588;51.598;5.618;2022-08-11T14:43:52;4.75;;;3.60;;
59728;SDS011;45588;51.598;5.618;2022-08-11T14:46:39;5.18;;;3.17;;
59728;SDS011;45588;51.598;5.618;2022-08-11T14:49:25;7.60;;;3.63;;
59728;SDS011;45588;51.598;5.618;2022-08-11T14:51:51;10.40;;;3.28;;
59728;SDS011;45588;51.598;5.618;2022-08-11T14:54:20;9.45;;;4.00;;
59728;SDS011;45588;51.598;5.618;2022-08-11T14:57:05;11.70;;;3.75;;
59728;SDS011;45588;51.598;5.618;2022-08-11T14:59:31;6.47;;;3.58;;
59728;SDS011;45588;51.598;5.618;2022-08-11T15:01:58;3.55;;;3.15;;
59728;SDS011;45588;51.598;5.618;2022-08-11T15:04:45;5.88;;;3.55;;
59728;SDS011;45588;51.598;5.618;2022-08-11T15:07:10;6.70;;;3.42;;
59728;SDS011;45588;51.598;5.618;2022-08-11T15:09:36;4.53;;;2.78;;
59728;SDS011;45588;51.598;5.618;2022-08-11T15:12:08;6.30;;;3.10;;
59728;SDS011;45588;51.598;5.618;2022-08-11T15:14:40;5.45;;;3.08;;
59728;SDS011;45588;51.598;5.618;2022-08-11T15:17:26;3.58;;;3.15;;
59728;SDS011;45588;51.598;5.618;2022-08-11T15:19:53;3.67;;;3.05;;
59728;SDS011;45588;51.598;5.618;2022-08-11T15:22:39;3.90;;;3.13;;
59728;SDS011;45588;51.598;5.618;2022-08-11T15:25:23;3.63;;;2.72;;
59728;SDS011;45588;51.598;5.618;2022-08-11T15:27:50;11.25;;;3.83;;
59728;SDS011;45588;51.598;5.618;2022-08-11T15:30:37;5.50;;;3.38;;
59728;SDS011;45588;51.598;5.618;2022-08-11T15:33:21;6.30;;;3.70;;
59728;SDS011;45588;51.598;5.618;2022-08-11T15:36:09;6.30;;;3.50;;
59728;SDS011;45588;51.598;5.618;2022-08-11T15:38:58;5.22;;;3.17;;
59728;SDS011;45588;51.598;5.618;2022-08-11T15:41:28;11.73;;;3.10;;
59728;SDS011;45588;51.598;5.618;2022-08-11T15:44:19;5.32;;;3.50;;
59728;SDS011;45588;51.598;5.618;2022-08-11T15:47:26;8.65;;;3.47;;
59728;SDS011;45588;51.598;5.618;2022-08-11T15:49:57;4.45;;;3.03;;
59728;SDS011;45588;51.598;5.618;2022-08-11T15:52:28;3.42;;;2.70;;
59728;SDS011;45588;51.598;5.618;2022-08-11T15:54:56;4.40;;;2.88;;
59728;SDS011;45588;51.598;5.618;2022-08-11T15:57:26;5.03;;;3.50;;
59728;SDS011;45588;51.598;5.618;2022-08-11T16:00:12;4.93;;;3.10;;
59728;SDS011;45588;51.598;5.618;2022-08-11T16:02:57;4.97;;;3.42;;
59728;SDS011;45588;51.598;5.618;2022-08-11T16:05:42;6.20;;;2.83;;
59728;SDS011;45588;51.598;5.618;2022-08-11T16:08:09;4.80;;;3.20;;
59728;SDS011;45588;51.598;5.618;2022-08-11T16:10:36;5.07;;;3.30;;
59728;SDS011;45588;51.598;5.618;2022-08-11T16:13:04;3.92;;;3.05;;
59728;SDS011;45588;51.598;5.618;2022-08-11T16:15:30;5.25;;;3.40;;
59728;SDS011;45588;51.598;5.618;2022-08-11T16:18:18;4.95;;;3.83;;
59728;SDS011;45588;51.598;5.618;2022-08-11T16:20:45;6.72;;;3.40;;
59728;SDS011;45588;51.598;5.618;2022-08-11T16:23:14;7.28;;;2.63;;
59728;SDS011;45588;51.598;5.618;2022-08-11T16:25:41;4.43;;;3.17;;
59728;SDS011;45588;51.598;5.618;2022-08-11T16:28:06;7.28;;;3.50;;
59728;SDS011;45588;51.598;5.618;2022-08-11T16:30:36;9.93;;;3.42;;
59728;SDS011;45588;51.598;5.618;2022-08-11T16:33:04;3.83;;;3.22;;
59728;SDS011;45588;51.598;5.618;2022-08-11T16:35:34;7.32;;;2.80;;
59728;SDS011;45588;51.598;5.618;2022-08-11T16:38:20;5.60;;;2.95;;
59728;SDS011;45588;51.598;5.618;2022-08-11T16:41:00;7.28;;;2.88;;
59728;SDS011;45588;51.598;5.618;2022-08-11T16:43:30;4.05;;;3.15;;
59728;SDS011;45588;51.598;5.618;2022-08-11T16:46:17;3.97;;;3.10;;
59728;SDS011;45588;51.598;5.618;2022-08-11T16:51:42;7.70;;;3.40;;
59728;SDS011;45588;51.598;5.618;2022-08-11T16:54:08;4.05;;;2.67;;
59728;SDS011;45588;51.598;5.618;2022-08-11T16:56:35;8.18;;;2.70;;
59728;SDS011;45588;51.598;5.618;2022-08-11T16:59:06;6.05;;;3.00;;
59728;SDS011;45588;51.598;5.618;2022-08-11T17:01:52;4.22;;;2.88;;
59728;SDS011;45588;51.598;5.618;2022-08-11T17:07:29;5.78;;;3.13;;
59728;SDS011;45588;51.598;5.618;2022-08-11T17:10:16;9.40;;;2.80;;
59728;SDS011;45588;51.598;5.618;2022-08-11T17:13:02;4.65;;;2.95;;
59728;SDS011;45588;51.598;5.618;2022-08-11T17:15:43;5.25;;;2.90;;
59728;SDS011;45588;51.598;5.618;2022-08-11T17:18:30;8.57;;;3.03;;
59728;SDS011;45588;51.598;5.618;2022-08-11T17:21:04;5.90;;;3.00;;
59728;SDS011;45588;51.598;5.618;2022-08-11T17:23:30;6.03;;;3.15;;
59728;SDS011;45588;51.598;5.618;2022-08-11T17:28:40;4.90;;;3.03;;
59728;SDS011;45588;51.598;5.618;2022-08-11T17:31:08;8.48;;;3.10;;
59728;SDS011;45588;51.598;5.618;2022-08-11T17:33:54;3.10;;;2.80;;
59728;SDS011;45588;51.598;5.618;2022-08-11T17:36:40;6.57;;;2.83;;
59728;SDS011;45588;51.598;5.618;2022-08-11T17:39:08;5.90;;;2.50;;
59728;SDS011;45588;51.598;5.618;2022-08-11T17:41:35;5.43;;;2.75;;
59728;SDS011;45588;51.598;5.618;2022-08-11T17:44:20;5.07;;;3.15;;
59728;SDS011;45588;51.598;5.618;2022-08-11T17:47:04;7.07;;;3.03;;
59728;SDS011;45588;51.598;5.618;2022-08-11T17:49:48;7.97;;;3.13;;
59728;SDS011;45588;51.598;5.618;2022-08-11T17:52:16;5.95;;;2.97;;
59728;SDS011;45588;51.598;5.618;2022-08-11T17:55:01;5.97;;;3.03;;
59728;SDS011;45588;51.598;5.618;2022-08-11T17:57:46;6.97;;;3.45;;
59728;SDS011;45588;51.598;5.618;2022-08-11T18:00:31;6.32;;;3.20;;
59728;SDS011;45588;51.598;5.618;2022-08-11T18:02:57;7.40;;;3.50;;
59728;SDS011;45588;51.598;5.618;2022-08-11T18:05:43;5.32;;;3.63;;
59728;SDS011;45588;51.598;5.618;2022-08-11T18:08:10;4.75;;;3.17;;
59728;SDS011;45588;51.598;5.618;2022-08-11T18:10:56;7.00;;;3.33;;
59728;SDS011;45588;51.598;5.618;2022-08-11T18:13:42;4.22;;;3.50;;
59728;SDS011;45588;51.598;5.618;2022-08-11T18:16:27;6.88;;;3.47;;
59728;SDS011;45588;51.598;5.618;2022-08-11T18:19:12;7.75;;;3.30;;
59728;SDS011;45588;51.598;5.618;2022-08-11T18:22:05;8.10;;;3.92;;
59728;SDS011;45588;51.598;5.618;2022-08-11T18:24:57;5.53;;;3.22;;
59728;SDS011;45588;51.598;5.618;2022-08-11T18:27:45;8.50;;;3.47;;
59728;SDS011;45588;51.598;5.618;2022-08-11T18:30:34;8.85;;;4.25;;
59728;SDS011;45588;51.598;5.618;2022-08-11T18:33:21;10.43;;;3.80;;
59728;SDS011;45588;51.598;5.618;2022-08-11T18:36:10;11.32;;;4.03;;
59728;SDS011;45588;51.598;5.618;2022-08-11T18:38:57;10.18;;;4.47;;
59728;SDS011;45588;51.598;5.618;2022-08-11T18:41:43;9.65;;;3.83;;
59728;SDS011;45588;51.598;5.618;2022-08-11T18:44:30;13.75;;;3.88;;
59728;SDS011;45588;51.598;5.618;2022-08-11T18:47:17;8.98;;;4.03;;
59728;SDS011;45588;51.598;5.618;2022-08-11T18:50:04;7.20;;;3.90;;
59728;SDS011;45588;51.598;5.618;2022-08-11T18:52:54;8.27;;;4.15;;
59728;SDS011;45588;51.598;5.618;2022-08-11T18:55:40;14.18;;;4.80;;
59728;SDS011;45588;51.598;5.618;2022-08-11T18:58:27;10.13;;;5.22;;
59728;SDS011;45588;51.598;5.618;2022-08-11T19:01:13;14.07;;;5.55;;
59728;SDS011;45588;51.598;5.618;2022-08-11T19:03:59;11.70;;;5.50;;
59728;SDS011;45588;51.598;5.618;2022-08-11T19:06:47;11.52;;;4.95;;